createdAt,value
2022-08-07T00:02:39.659Z,101127.60
2022-08-07T00:05:12.830Z,101133.60
2022-08-07T00:07:45.621Z,101134.80
2022-08-07T00:10:27.171Z,101134.20
2022-08-07T00:13:17.499Z,101136.00
2022-08-07T00:15:58.855Z,101137.40
2022-08-07T00:18:33.665Z,101141.80
2022-08-07T00:21:56.195Z,101142.40
2022-08-07T00:24:04.156Z,101139.00
2022-08-07T00:26:49.301Z,101145.40
2022-08-07T00:29:32.213Z,101140.80
2022-08-07T00:32:05.976Z,101132.60
2022-08-07T00:34:39.873Z,101133.00
2022-08-07T00:37:12.745Z,101136.40
2022-08-07T00:39:54.264Z,101141.80
2022-08-07T00:42:29.010Z,101134.40
2022-08-07T00:45:02.696Z,101141.20
2022-08-07T00:48:18.402Z,101133.20
2022-08-07T00:50:46.497Z,101128.80
2022-08-07T00:53:24.925Z,101126.00
2022-08-07T00:56:03.403Z,101124.60
2022-08-07T00:58:37.548Z,101123.20
2022-08-07T01:01:14.028Z,101130.40
2022-08-07T01:03:55.802Z,101127.60
2022-08-07T01:06:33.611Z,101125.20
2022-08-07T01:09:09.414Z,101129.20
2022-08-07T01:12:27.438Z,101135.80
2022-08-07T01:15:01.715Z,101132.20
2022-08-07T01:17:37.675Z,101135.20
2022-08-07T01:20:17.455Z,101136.60
2022-08-07T01:23:00.417Z,101137.00
2022-08-07T01:25:55.234Z,101143.60
2022-08-07T01:28:31.007Z,101145.20
2022-08-07T01:31:06.553Z,101141.00
2022-08-07T01:33:56.141Z,101141.80
2022-08-07T01:36:36.467Z,101140.80
2022-08-07T01:39:20.262Z,101137.80
2022-08-07T01:42:38.776Z,101139.40
2022-08-07T01:44:56.627Z,101146.20
2022-08-07T01:48:19.302Z,101138.80
2022-08-07T01:50:29.015Z,101143.80
2022-08-07T01:53:08.582Z,101141.00
2022-08-07T01:55:50.819Z,101149.00
2022-08-07T01:58:29.861Z,101144.20
2022-08-07T02:01:25.346Z,101146.20
2022-08-07T02:04:13.099Z,101141.80
2022-08-07T02:06:48.509Z,101142.40
2022-08-07T02:09:51.604Z,101148.60
2022-08-07T02:12:29.095Z,101142.20
2022-08-07T02:15:05.867Z,101142.40
2022-08-07T02:17:49.811Z,101147.20
2022-08-07T02:20:26.486Z,101148.40
2022-08-07T02:23:04.601Z,101144.60
2022-08-07T02:26:31.905Z,101145.00
2022-08-07T02:28:34.547Z,101142.80
2022-08-07T02:31:18.665Z,101142.80
2022-08-07T02:34:11.300Z,101145.80
2022-08-07T02:36:53.526Z,101143.20
2022-08-07T02:39:42.964Z,101137.80
2022-08-07T02:42:21.173Z,101136.20
2022-08-07T02:44:58.420Z,101137.60
2022-08-07T02:47:45.102Z,101135.60
2022-08-07T02:50:22.448Z,101137.40
2022-08-07T02:53:06.296Z,101137.60
2022-08-07T02:56:02.431Z,101144.40
2022-08-07T02:58:47.462Z,101148.40
2022-08-07T03:01:35.323Z,101151.40
2022-08-07T03:04:13.899Z,101151.40
2022-08-07T03:06:50.739Z,101143.80
2022-08-07T03:09:44.720Z,101145.00
2022-08-07T03:12:22.529Z,101142.00
2022-08-07T03:15:08.703Z,101145.00
2022-08-07T03:17:52.942Z,101142.00
2022-08-07T03:20:28.993Z,101142.00
2022-08-07T03:23:03.752Z,101138.00
2022-08-07T03:25:41.654Z,101139.40
2022-08-07T03:28:38.039Z,101135.60
2022-08-07T03:31:26.141Z,101137.00
2022-08-07T03:34:22.014Z,101134.20
2022-08-07T03:36:58.664Z,101137.40
2022-08-07T03:39:58.921Z,101138.60
2022-08-07T03:42:29.143Z,101140.00
2022-08-07T03:45:02.548Z,101143.80
2022-08-07T03:47:47.783Z,101138.40
2022-08-07T03:50:28.379Z,101139.80
2022-08-07T03:53:04.444Z,101135.40
2022-08-07T03:55:52.796Z,101141.40
2022-08-07T03:59:07.152Z,101149.80
2022-08-07T04:01:30.210Z,101145.40
2022-08-07T04:04:05.713Z,101151.60
2022-08-07T04:06:41.836Z,101149.60
2022-08-07T04:09:19.954Z,101149.40
2022-08-07T04:12:23.945Z,101146.60
2022-08-07T04:14:53.048Z,101152.80
2022-08-07T04:18:30.730Z,101160.40
2022-08-07T04:20:19.872Z,101156.00
2022-08-07T04:23:01.378Z,101155.80
2022-08-07T04:25:40.857Z,101158.20
2022-08-07T04:28:15.745Z,101159.20
2022-08-07T04:30:58.659Z,101162.00
2022-08-07T04:33:38.819Z,101161.60
2022-08-07T04:36:13.217Z,101162.80
2022-08-07T04:38:47.589Z,101160.80
2022-08-07T04:41:20.549Z,101163.80
2022-08-07T04:44:13.171Z,101160.60
2022-08-07T04:47:08.105Z,101160.80
2022-08-07T04:50:03.905Z,101163.20
2022-08-07T04:52:51.765Z,101161.40
2022-08-07T04:58:15.884Z,101158.40
2022-08-07T04:59:09.203Z,101165.80
2022-08-07T05:01:44.031Z,101170.60
2022-08-07T05:04:32.989Z,101165.40
2022-08-07T05:07:19.581Z,101168.00
2022-08-07T05:10:00.808Z,101170.20
2022-08-07T05:12:46.214Z,101171.80
2022-08-07T05:15:32.351Z,101174.60
2022-08-07T05:18:16.393Z,101166.20
2022-08-07T05:20:58.035Z,101179.60
2022-08-07T05:23:38.047Z,101179.20
2022-08-07T05:26:24.107Z,101176.40
2022-08-07T05:29:06.052Z,101177.60
2022-08-07T05:31:51.275Z,101172.60
2022-08-07T05:34:29.843Z,101177.60
2022-08-07T05:37:05.986Z,101172.80
2022-08-07T05:39:47.771Z,101176.00
2022-08-07T05:42:40.853Z,101182.40
2022-08-07T05:45:47.104Z,101179.40
2022-08-07T05:48:12.031Z,101188.60
2022-08-07T05:50:50.680Z,101186.20
2022-08-07T05:54:09.384Z,101186.80
2022-08-07T05:56:20.332Z,101188.80
2022-08-07T05:59:09.921Z,101187.40
2022-08-07T06:01:44.536Z,101190.80
2022-08-07T06:04:22.246Z,101195.00
2022-08-07T06:07:06.153Z,101194.40
2022-08-07T06:10:03.762Z,101195.20
2022-08-07T06:12:37.211Z,101201.00
2022-08-07T06:15:16.382Z,101203.60
2022-08-07T06:17:55.377Z,101201.40
2022-08-07T06:20:50.790Z,101204.60
2022-08-07T06:24:37.100Z,101200.40
2022-08-07T06:26:19.420Z,101204.00
2022-08-07T06:28:58.948Z,101196.20
2022-08-07T06:31:49.366Z,101191.40
2022-08-07T06:34:28.086Z,101203.60
2022-08-07T06:37:03.718Z,101208.40
2022-08-07T06:40:16.977Z,101209.60
2022-08-07T06:42:37.862Z,101205.60
2022-08-07T06:45:24.074Z,101208.40
2022-08-07T06:48:01.858Z,101211.80
2022-08-07T06:50:47.818Z,101211.60
2022-08-07T06:55:29.758Z,101204.00
2022-08-07T06:56:49.833Z,101214.60
2022-08-07T07:00:11.857Z,101212.60
2022-08-07T07:02:54.529Z,101210.20
2022-08-07T07:06:02.408Z,101214.40
2022-08-07T07:08:18.418Z,101211.20
2022-08-07T07:10:58.971Z,101207.20
2022-08-07T07:13:58.169Z,101207.40
2022-08-07T07:16:49.487Z,101206.20
2022-08-07T07:19:57.240Z,101200.20
2022-08-07T07:22:36.673Z,101195.20
2022-08-07T07:26:32.119Z,101198.00
2022-08-07T07:28:29.896Z,101199.40
2022-08-07T07:31:21.456Z,101194.20
2022-08-07T07:34:00.103Z,101193.20
2022-08-07T07:36:35.679Z,101192.40
2022-08-07T07:39:15.255Z,101188.60
2022-08-07T07:42:13.777Z,101184.00
2022-08-07T07:44:50.514Z,101185.40
2022-08-07T07:47:24.605Z,101184.00
2022-08-07T07:50:33.578Z,101185.00
2022-08-07T07:52:52.323Z,101184.20
2022-08-07T07:55:37.065Z,101182.60
2022-08-07T07:58:11.492Z,101183.40
2022-08-07T08:00:50.842Z,101181.00
2022-08-07T08:04:10.990Z,101183.40
2022-08-07T08:06:21.566Z,101181.00
2022-08-07T08:08:59.094Z,101182.00
2022-08-07T08:12:00.007Z,101181.60
2022-08-07T08:14:26.663Z,101181.40
2022-08-07T08:17:32.295Z,101190.20
2022-08-07T08:20:17.829Z,101186.00
2022-08-07T08:23:11.231Z,101181.20
2022-08-07T08:26:07.251Z,101178.80
2022-08-07T08:28:45.073Z,101187.60
2022-08-07T08:31:30.169Z,101185.00
2022-08-07T08:34:27.252Z,101183.40
2022-08-07T08:37:04.122Z,101182.40
2022-08-07T08:39:54.910Z,101184.20
2022-08-07T08:42:40.309Z,101186.20
2022-08-07T08:45:21.352Z,101184.20
2022-08-07T08:48:11.234Z,101188.20
2022-08-07T08:50:54.021Z,101187.00
2022-08-07T08:53:39.805Z,101187.60
2022-08-07T08:56:17.010Z,101183.60
2022-08-07T08:59:06.504Z,101182.20
2022-08-07T09:01:58.532Z,101189.20
2022-08-07T09:04:44.065Z,101188.80
2022-08-07T09:07:28.690Z,101189.00
2022-08-07T09:10:16.886Z,101189.20
2022-08-07T09:12:58.966Z,101188.40
2022-08-07T09:16:22.154Z,101185.80
2022-08-07T09:19:51.323Z,101185.00
2022-08-07T09:24:31.342Z,101182.60
2022-08-07T09:25:24.323Z,101179.40
2022-08-07T09:28:05.972Z,101177.60
2022-08-07T09:31:07.502Z,101180.40
2022-08-07T09:34:08.241Z,101176.60
2022-08-07T09:36:49.982Z,101176.20
2022-08-07T09:39:54.420Z,101176.40
2022-08-07T09:42:54.258Z,101175.60
2022-08-07T09:47:24.874Z,101174.80
2022-08-07T09:50:01.950Z,101165.00
2022-08-07T09:52:16.158Z,101169.60
2022-08-07T09:55:28.883Z,101159.40
2022-08-07T09:58:43.522Z,101163.40
2022-08-07T10:01:53.546Z,101155.60
2022-08-07T10:04:53.370Z,101163.20
2022-08-07T10:07:53.028Z,101157.20
2022-08-07T10:14:02.194Z,101158.20
2022-08-07T10:17:14.380Z,101159.80
2022-08-07T10:20:12.961Z,101155.40
2022-08-07T10:23:12.302Z,101147.20
2022-08-07T10:26:02.827Z,101142.80
2022-08-07T10:28:59.706Z,101143.40
2022-08-07T10:31:54.771Z,101132.40
2022-08-07T10:34:49.402Z,101137.60
2022-08-07T10:37:59.853Z,101132.80
2022-08-07T10:40:44.313Z,101123.60
2022-08-07T10:43:34.526Z,101125.60
2022-08-07T10:46:17.028Z,101134.80
2022-08-07T10:49:15.168Z,101129.20
2022-08-07T10:52:13.476Z,101124.40
2022-08-07T10:55:01.662Z,101115.00
2022-08-07T10:57:56.007Z,101111.80
2022-08-07T11:00:39.250Z,101114.00
2022-08-07T11:03:37.878Z,101109.20
2022-08-07T11:06:33.853Z,101121.20
2022-08-07T11:10:10.158Z,101121.40
2022-08-07T11:12:19.101Z,101104.20
2022-08-07T11:15:17.291Z,101108.60
2022-08-07T11:18:03.771Z,101105.80
2022-08-07T11:20:56.932Z,101102.40
2022-08-07T11:23:48.529Z,101094.20
2022-08-07T11:26:33.169Z,101102.40
2022-08-07T11:29:40.751Z,101101.60
2022-08-07T11:32:25.969Z,101095.20
2022-08-07T11:35:04.410Z,101093.80
2022-08-07T11:38:10.253Z,101094.00
2022-08-07T11:40:58.759Z,101089.20
2022-08-07T11:43:54.534Z,101087.20
2022-08-07T11:46:48.955Z,101084.40
2022-08-07T11:50:11.499Z,101085.40
2022-08-07T11:52:53.247Z,101080.40
2022-08-07T11:56:24.841Z,101082.20
2022-08-07T11:58:58.894Z,101081.40
2022-08-07T12:02:00.646Z,101080.60
2022-08-07T12:04:58.685Z,101080.80
2022-08-07T12:07:39.057Z,101075.40
2022-08-07T12:10:23.129Z,101078.20
2022-08-07T12:13:11.539Z,101074.00
2022-08-07T12:16:06.875Z,101076.80
2022-08-07T12:18:52.013Z,101078.80
2022-08-07T12:21:55.615Z,101077.00
2022-08-07T12:25:08.079Z,101080.80
2022-08-07T12:28:09.905Z,101072.20
2022-08-07T12:30:46.549Z,101067.80
2022-08-07T12:33:30.785Z,101065.80
2022-08-07T12:36:20.344Z,101065.80
2022-08-07T12:39:41.155Z,101065.80
2022-08-07T12:42:02.591Z,101059.60
2022-08-07T12:44:40.051Z,101064.60
2022-08-07T12:47:37.843Z,101055.20
2022-08-07T12:50:33.819Z,101054.80
2022-08-07T12:53:22.266Z,101053.20
2022-08-07T12:56:09.112Z,101052.60
2022-08-07T12:58:53.193Z,101046.80
2022-08-07T13:01:54.003Z,101049.00
2022-08-07T13:05:01.984Z,101038.20
2022-08-07T13:08:31.998Z,101042.20
2022-08-07T13:11:26.758Z,101040.00
2022-08-07T13:14:09.851Z,101031.60
2022-08-07T13:16:55.531Z,101040.00
2022-08-07T13:19:51.718Z,101036.80
2022-08-07T13:22:32.409Z,101036.40
2022-08-07T13:25:23.926Z,101032.80
2022-08-07T13:28:13.267Z,101031.00
2022-08-07T13:31:01.789Z,101019.60
2022-08-07T13:34:30.594Z,101015.20
2022-08-07T13:36:54.091Z,101015.00
2022-08-07T13:40:33.337Z,101011.20
2022-08-07T13:42:35.150Z,101008.20
2022-08-07T13:46:06.835Z,101006.80
2022-08-07T13:48:20.836Z,101007.60
2022-08-07T13:51:20.459Z,101003.20
2022-08-07T13:54:03.878Z,100999.80
2022-08-07T13:56:51.791Z,100997.20
2022-08-07T13:59:32.547Z,100990.20
2022-08-07T14:02:13.142Z,100989.40
2022-08-07T14:04:54.823Z,100996.60
2022-08-07T14:07:33.555Z,100990.80
2022-08-07T14:10:17.537Z,100982.00
2022-08-07T14:12:58.738Z,100984.60
2022-08-07T14:15:39.755Z,100982.60
2022-08-07T14:18:29.240Z,100984.20
2022-08-07T14:22:02.259Z,100978.60
2022-08-07T14:24:10.270Z,100980.20
2022-08-07T14:26:50.994Z,100968.60
2022-08-07T14:30:05.871Z,100972.60
2022-08-07T14:32:25.035Z,100964.20
2022-08-07T14:35:03.936Z,100961.60
2022-08-07T14:37:39.985Z,100962.00
2022-08-07T14:40:26.357Z,100961.20
2022-08-07T14:43:55.533Z,100960.80
2022-08-07T14:46:01.009Z,100953.60
2022-08-07T14:48:37.832Z,100952.80
2022-08-07T14:51:19.640Z,100953.00
2022-08-07T14:56:51.165Z,100955.20
2022-08-07T15:00:06.220Z,100957.60
2022-08-07T15:05:23.517Z,100946.60
2022-08-07T15:07:58.116Z,100951.00
2022-08-07T15:10:32.269Z,100943.20
2022-08-07T15:13:13.774Z,100943.40
2022-08-07T15:15:52.607Z,100944.00
2022-08-07T15:18:36.075Z,100941.20
2022-08-07T15:25:12.961Z,100936.40
2022-08-07T15:27:16.150Z,100936.40
2022-08-07T15:30:10.226Z,100934.60
2022-08-07T15:36:01.407Z,100933.40
2022-08-07T15:38:51.980Z,100933.20
2022-08-07T15:42:43.905Z,100926.40
2022-08-07T15:44:30.150Z,100922.60
2022-08-07T15:47:09.001Z,100921.60
2022-08-07T15:50:05.660Z,100922.60
2022-08-07T15:52:41.367Z,100926.60
2022-08-07T15:55:23.316Z,100921.60
2022-08-07T15:58:20.971Z,100919.20
2022-08-07T16:00:54.544Z,100915.80
2022-08-07T16:03:47.314Z,100915.20
2022-08-07T16:06:34.988Z,100912.00
2022-08-07T16:09:22.858Z,100916.60
2022-08-07T16:12:12.420Z,100912.00
2022-08-07T16:15:55.361Z,100911.20
2022-08-07T16:18:49.584Z,100916.00
2022-08-07T16:22:01.210Z,100913.00
2022-08-07T16:24:35.720Z,100910.60
2022-08-07T16:27:20.845Z,100913.20
2022-08-07T16:30:30.217Z,100910.40
2022-08-07T16:34:01.771Z,100909.80
2022-08-07T16:36:31.320Z,100901.40
2022-08-07T16:39:40.521Z,100909.60
2022-08-07T16:42:49.519Z,100912.40
2022-08-07T16:46:47.379Z,100908.60
2022-08-07T16:50:20.673Z,100907.60
2022-08-07T16:53:09.863Z,100907.80
2022-08-07T16:55:47.364Z,100908.20
2022-08-07T16:59:02.272Z,100905.80
2022-08-07T17:01:56.565Z,100902.80
2022-08-07T17:04:57.799Z,100903.80
2022-08-07T17:07:55.743Z,100902.80
2022-08-07T17:10:54.940Z,100903.20
2022-08-07T17:14:19.640Z,100907.20
2022-08-07T17:17:02.731Z,100902.40
2022-08-07T17:20:02.735Z,100906.40
2022-08-07T17:22:45.066Z,100910.00
2022-08-07T17:25:47.729Z,100910.40
2022-08-07T17:28:25.615Z,100909.60
2022-08-07T17:31:16.428Z,100904.60
2022-08-07T17:34:32.859Z,100910.40
2022-08-07T17:38:06.707Z,100907.40
2022-08-07T17:40:10.876Z,100910.20
2022-08-07T17:42:59.459Z,100910.20
2022-08-07T17:45:41.138Z,100906.40
2022-08-07T17:48:30.748Z,100907.00
2022-08-07T17:51:21.262Z,100906.80
2022-08-07T17:54:06.531Z,100908.60
2022-08-07T17:56:52.615Z,100911.80
2022-08-07T17:59:37.452Z,100913.40
2022-08-07T18:02:16.061Z,100910.60
2022-08-07T18:05:21.808Z,100911.20
2022-08-07T18:08:16.426Z,100917.20
2022-08-07T18:12:11.909Z,100923.20
2022-08-07T18:14:18.190Z,100917.20
2022-08-07T18:17:05.186Z,100917.60
2022-08-07T18:21:11.036Z,100915.00
2022-08-07T18:22:50.363Z,100916.40
2022-08-07T18:25:40.456Z,100922.20
2022-08-07T18:28:35.844Z,100921.20
2022-08-07T18:31:25.332Z,100925.00
2022-08-07T18:34:40.913Z,100925.40
2022-08-07T18:38:55.822Z,100930.00
2022-08-07T18:40:50.153Z,100927.80
2022-08-07T18:43:50.506Z,100931.20
2022-08-07T18:46:42.974Z,100932.00
2022-08-07T18:50:19.542Z,100937.20
2022-08-07T18:53:01.436Z,100936.80
2022-08-07T18:55:56.013Z,100939.20
2022-08-07T18:58:57.681Z,100941.40
2022-08-07T19:02:33.139Z,100943.00
2022-08-07T19:04:57.513Z,100943.80
2022-08-07T19:07:51.959Z,100947.60
2022-08-07T19:10:51.442Z,100950.60
2022-08-07T19:13:50.039Z,100941.00
2022-08-07T19:17:04.782Z,100949.00
2022-08-07T19:19:57.519Z,100949.00
2022-08-07T19:22:38.386Z,100957.00
2022-08-07T19:26:24.824Z,100956.80
2022-08-07T19:28:58.072Z,100962.80
2022-08-07T19:31:37.312Z,100963.00
2022-08-07T19:34:34.280Z,100965.80
2022-08-07T19:37:17.339Z,100967.80
2022-08-07T19:40:02.257Z,100967.40
2022-08-07T19:42:42.630Z,100964.80
2022-08-07T19:46:08.008Z,100969.60
2022-08-07T19:48:19.128Z,100972.20
2022-08-07T19:51:01.003Z,100968.40
2022-08-07T19:54:33.901Z,100964.20
2022-08-07T19:57:56.786Z,100961.80
2022-08-07T19:59:41.609Z,100965.00
2022-08-07T20:02:29.464Z,100960.00
2022-08-07T20:05:07.986Z,100954.80
2022-08-07T20:07:47.776Z,100950.20
2022-08-07T20:10:35.351Z,100954.20
2022-08-07T20:13:32.314Z,100957.00
2022-08-07T20:16:31.914Z,100963.80
2022-08-07T20:19:10.405Z,100965.40
2022-08-07T20:21:47.643Z,100966.80
2022-08-07T20:24:28.728Z,100965.80
2022-08-07T20:27:07.627Z,100975.00
2022-08-07T20:29:59.219Z,100976.80
2022-08-07T20:32:40.265Z,100973.80
2022-08-07T20:35:26.135Z,100972.20
2022-08-07T20:38:01.053Z,100972.20
2022-08-07T20:40:41.276Z,100971.60
2022-08-07T20:43:19.716Z,100971.00
2022-08-07T20:46:28.442Z,100974.60
2022-08-07T20:49:53.882Z,100971.20
2022-08-07T20:51:50.794Z,100969.80
2022-08-07T20:54:29.743Z,100973.40
2022-08-07T20:57:10.230Z,100972.40
2022-08-07T21:00:07.502Z,100966.80
2022-08-07T21:03:01.689Z,100963.40
2022-08-07T21:05:54.918Z,100962.80
2022-08-07T21:08:39.254Z,100960.80
2022-08-07T21:11:18.929Z,100958.40
2022-08-07T21:14:32.535Z,100959.60
2022-08-07T21:18:00.903Z,100962.60
2022-08-07T21:20:05.013Z,100955.00
2022-08-07T21:22:44.681Z,100959.20
2022-08-07T21:25:28.912Z,100965.40
2022-08-07T21:28:16.747Z,100966.00
2022-08-07T21:31:31.227Z,100963.20
2022-08-07T21:34:26.755Z,100970.20
2022-08-07T21:37:14.094Z,100966.20
2022-08-07T21:39:59.374Z,100975.20
2022-08-07T21:42:48.339Z,100969.20
2022-08-07T21:46:09.921Z,100970.20
2022-08-07T21:48:33.520Z,100967.40
2022-08-07T21:51:20.374Z,100976.40
2022-08-07T21:54:13.581Z,100974.00
2022-08-07T21:57:31.019Z,100972.00
2022-08-07T22:00:23.139Z,100975.20
2022-08-07T22:03:16.795Z,100977.00
2022-08-07T22:05:57.093Z,100979.20
2022-08-07T22:08:40.050Z,100976.20
2022-08-07T22:11:19.283Z,100974.40
2022-08-07T22:13:55.725Z,100979.00
2022-08-07T22:16:52.641Z,100982.80
2022-08-07T22:19:33.404Z,100979.20
2022-08-07T22:22:21.117Z,100979.20
2022-08-07T22:25:11.337Z,100983.20
2022-08-07T22:28:08.003Z,100980.20
2022-08-07T22:30:53.931Z,100981.60
2022-08-07T22:33:52.654Z,100985.80
2022-08-07T22:36:38.479Z,100982.80
2022-08-07T22:39:24.555Z,100978.20
2022-08-07T22:42:18.968Z,100977.20
2022-08-07T22:44:58.964Z,100978.00
2022-08-07T22:48:31.361Z,100972.40
2022-08-07T22:51:21.957Z,100972.60
2022-08-07T22:54:11.208Z,100971.40
2022-08-07T22:57:02.620Z,100969.80
2022-08-07T23:00:03.642Z,100965.20
2022-08-07T23:03:19.355Z,100964.40
2022-08-07T23:06:16.768Z,100964.40
2022-08-07T23:10:03.925Z,100964.60
2022-08-07T23:12:35.675Z,100964.80
2022-08-07T23:15:22.058Z,100965.00
2022-08-07T23:18:34.393Z,100961.00
2022-08-07T23:21:30.468Z,100957.20
2022-08-07T23:24:45.718Z,100951.20
2022-08-07T23:28:22.558Z,100952.40
2022-08-07T23:31:06.615Z,100958.60
2022-08-07T23:34:34.420Z,100959.60
2022-08-07T23:37:33.229Z,100955.40
2022-08-07T23:40:21.121Z,100953.40
2022-08-07T23:43:21.555Z,100952.20
2022-08-07T23:46:10.681Z,100951.40
2022-08-07T23:49:19.852Z,100957.00
2022-08-07T23:52:59.617Z,100963.40
2022-08-07T23:55:08.496Z,100958.80
2022-08-07T23:57:48.732Z,100958.80
